createdAt,value
2023-05-21T00:03:53.607Z,24.97
2023-05-21T00:07:55.576Z,24.20
2023-05-21T00:11:57.267Z,25.52
2023-05-21T00:15:59.017Z,24.60
2023-05-21T00:20:02.658Z,23.55
2023-05-21T00:24:04.617Z,23.50
2023-05-21T00:28:06.401Z,23.60
2023-05-21T00:32:08.407Z,27.73
2023-05-21T00:36:14.477Z,24.37
2023-05-21T00:40:16.540Z,25.23
2023-05-21T00:44:19.592Z,22.93
2023-05-21T00:48:21.389Z,24.85
2023-05-21T00:52:23.356Z,23.52
2023-05-21T00:56:27.428Z,22.65
2023-05-21T01:00:29.549Z,20.60
2023-05-21T01:04:31.932Z,22.57
2023-05-21T01:08:35.133Z,23.52
2023-05-21T01:12:39.744Z,23.38
2023-05-21T01:16:44.211Z,22.17
2023-05-21T01:20:48.360Z,19.55
2023-05-21T01:24:51.276Z,21.10
2023-05-21T01:28:53.986Z,25.88
2023-05-21T01:33:15.993Z,24.13
2023-05-21T01:37:26.832Z,21.30
2023-05-21T01:41:32.059Z,24.58
2023-05-21T01:45:39.661Z,20.98
2023-05-21T01:49:41.925Z,26.15
2023-05-21T01:53:43.610Z,22.70
2023-05-21T01:57:45.656Z,21.42
2023-05-21T02:01:47.534Z,22.50
2023-05-21T02:05:49.457Z,21.00
2023-05-21T02:09:51.147Z,26.70
2023-05-21T02:13:57.587Z,22.65
2023-05-21T02:17:59.294Z,23.83
2023-05-21T02:22:01.145Z,21.92
2023-05-21T02:26:03.109Z,24.80
2023-05-21T02:30:08.459Z,24.70
2023-05-21T02:34:10.431Z,22.58
2023-05-21T02:38:13.860Z,21.95
2023-05-21T02:42:15.857Z,22.45
2023-05-21T02:46:17.554Z,24.55
2023-05-21T02:50:19.476Z,19.20
2023-05-21T02:54:28.374Z,23.70
2023-05-21T02:58:30.087Z,25.33
2023-05-21T03:02:32.446Z,23.80
2023-05-21T03:06:34.922Z,21.60
2023-05-21T03:10:37.630Z,25.08
2023-05-21T03:14:39.560Z,23.50
2023-05-21T03:18:41.500Z,26.67
2023-05-21T03:22:44.709Z,23.50
2023-05-21T03:26:48.433Z,24.70
2023-05-21T03:30:51.218Z,22.95
2023-05-21T03:35:15.994Z,22.83
2023-05-21T03:39:18.034Z,22.37
2023-05-21T03:43:20.020Z,24.20
2023-05-21T03:47:21.928Z,23.10
2023-05-21T03:51:25.763Z,22.55
2023-05-21T03:55:27.592Z,26.67
2023-05-21T03:59:29.407Z,24.23
2023-05-21T04:03:33.328Z,23.20
2023-05-21T04:07:38.469Z,23.88
2023-05-21T04:11:41.922Z,22.98
2023-05-21T04:15:46.833Z,26.02
2023-05-21T04:19:48.889Z,25.73
2023-05-21T04:23:50.657Z,22.70
2023-05-21T04:28:07.408Z,27.27
2023-05-21T04:32:09.542Z,21.38
2023-05-21T04:36:11.747Z,22.70
2023-05-21T04:40:18.530Z,22.95
2023-05-21T04:44:20.596Z,26.00
2023-05-21T04:48:27.260Z,25.57
2023-05-21T04:52:29.047Z,22.30
2023-05-21T04:56:32.059Z,21.08
2023-05-21T05:00:34.639Z,21.00
2023-05-21T05:04:36.610Z,23.10
2023-05-21T05:08:38.370Z,23.23
2023-05-21T05:12:40.679Z,21.73
2023-05-21T05:16:43.080Z,21.02
2023-05-21T05:20:45.068Z,26.83
2023-05-21T05:24:46.800Z,22.25
2023-05-21T05:28:49.114Z,21.77
2023-05-21T05:32:51.109Z,22.15
2023-05-21T05:36:53.506Z,21.30
2023-05-21T05:40:55.324Z,22.17
2023-05-21T05:44:57.476Z,21.25
2023-05-21T05:48:59.224Z,24.33
2023-05-21T05:53:01.148Z,21.00
2023-05-21T05:57:04.359Z,23.67
2023-05-21T06:01:06.354Z,18.33
2023-05-21T06:05:10.631Z,21.95
2023-05-21T06:09:12.430Z,18.92
2023-05-21T06:13:14.616Z,19.33
2023-05-21T06:17:16.630Z,20.13
2023-05-21T06:21:18.353Z,20.20
2023-05-21T06:25:20.621Z,19.98
2023-05-21T06:29:24.429Z,18.20
2023-05-21T06:33:27.748Z,20.77
2023-05-21T06:37:29.573Z,21.13
2023-05-21T06:41:31.616Z,17.20
2023-05-21T06:45:37.924Z,21.05
2023-05-21T06:49:55.565Z,19.70
2023-05-21T06:53:57.769Z,17.60
2023-05-21T06:58:00.804Z,19.00
2023-05-21T07:02:04.463Z,18.03
2023-05-21T07:06:07.271Z,16.52
2023-05-21T07:14:11.956Z,20.38
2023-05-21T07:18:13.910Z,17.40
2023-05-21T07:22:16.216Z,15.73
2023-05-21T07:26:18.583Z,18.48
2023-05-21T07:30:21.443Z,15.00
2023-05-21T07:34:23.248Z,16.98
2023-05-21T07:38:24.952Z,18.05
2023-05-21T07:42:27.277Z,16.67
2023-05-21T07:46:31.319Z,16.08
2023-05-21T07:50:33.404Z,16.42
2023-05-21T07:54:35.854Z,18.60
2023-05-21T07:58:38.110Z,15.73
2023-05-21T08:02:40.643Z,17.07
2023-05-21T08:10:47.171Z,17.23
2023-05-21T08:14:49.328Z,13.90
2023-05-21T08:18:52.382Z,14.38
2023-05-21T08:22:55.067Z,14.27
2023-05-21T08:26:58.109Z,15.57
2023-05-21T08:31:00.179Z,17.60
2023-05-21T08:35:02.099Z,16.30
2023-05-21T08:39:25.827Z,16.85
2023-05-21T08:43:30.633Z,16.63
2023-05-21T08:47:35.770Z,15.18
2023-05-21T08:51:42.037Z,17.15
2023-05-21T08:55:45.633Z,14.20
2023-05-21T08:59:48.436Z,21.35
2023-05-21T09:04:12.182Z,14.50
2023-05-21T09:08:27.509Z,14.60
2023-05-21T09:12:36.469Z,14.02
2023-05-21T09:16:39.013Z,14.52
2023-05-21T09:20:41.175Z,13.90
2023-05-21T09:24:44.483Z,11.77
2023-05-21T09:28:47.067Z,14.00
2023-05-21T09:32:58.855Z,15.25
2023-05-21T09:37:03.711Z,13.30
2023-05-21T09:41:07.177Z,15.85
2023-05-21T09:45:10.753Z,13.40
2023-05-21T09:49:28.667Z,11.48
2023-05-21T09:53:32.190Z,13.10
2023-05-21T09:57:41.619Z,12.07
2023-05-21T10:01:44.367Z,13.43
2023-05-21T10:05:47.058Z,12.23
2023-05-21T10:09:50.682Z,12.82
2023-05-21T10:14:09.829Z,13.15
2023-05-21T10:18:13.540Z,13.35
2023-05-21T10:22:16.968Z,15.40
2023-05-21T10:26:21.775Z,13.85
2023-05-21T10:30:24.749Z,13.82
2023-05-21T10:34:28.367Z,12.43
2023-05-21T10:38:32.934Z,14.40
2023-05-21T10:42:34.981Z,11.30
2023-05-21T10:51:38.712Z,12.63
2023-05-21T10:55:46.355Z,13.65
2023-05-21T10:59:49.034Z,15.18
2023-05-21T11:03:50.992Z,14.15
2023-05-21T11:08:01.770Z,15.60
2023-05-21T11:12:33.153Z,11.75
2023-05-21T11:16:36.658Z,14.55
2023-05-21T11:20:38.813Z,11.70
2023-05-21T11:24:41.519Z,11.18
2023-05-21T11:28:46.078Z,12.15
2023-05-21T11:33:14.305Z,13.43
2023-05-21T11:37:34.712Z,9.82
2023-05-21T11:42:01.572Z,14.40
2023-05-21T11:46:05.872Z,12.07
2023-05-21T11:50:16.214Z,11.05
2023-05-21T11:54:21.101Z,11.07
2023-05-21T11:58:23.669Z,11.07
2023-05-21T12:02:31.607Z,9.05
2023-05-21T12:06:35.827Z,10.77
2023-05-21T12:10:40.038Z,10.20
2023-05-21T12:14:48.635Z,11.70
2023-05-21T12:18:52.113Z,12.63
2023-05-21T12:22:54.429Z,11.93
2023-05-21T12:26:59.563Z,13.73
2023-05-21T12:31:01.549Z,11.73
2023-05-21T12:35:03.608Z,10.55
2023-05-21T12:39:11.168Z,10.88
2023-05-21T12:43:13.419Z,10.30
2023-05-21T12:47:15.465Z,9.88
2023-05-21T12:51:17.564Z,9.57
2023-05-21T12:55:19.708Z,10.32
2023-05-21T12:59:21.425Z,10.45
2023-05-21T13:03:24.101Z,13.73
2023-05-21T13:07:27.720Z,10.52
2023-05-21T13:11:30.331Z,10.38
2023-05-21T13:15:32.199Z,11.23
2023-05-21T13:19:34.461Z,10.98
2023-05-21T13:23:36.269Z,10.52
2023-05-21T13:27:39.114Z,10.95
2023-05-21T13:31:44.382Z,10.73
2023-05-21T13:35:51.245Z,10.52
2023-05-21T13:39:53.130Z,10.95
2023-05-21T13:43:55.009Z,12.75
2023-05-21T13:47:56.952Z,11.48
2023-05-21T13:52:00.355Z,10.75
2023-05-21T13:56:02.666Z,10.63
2023-05-21T14:00:11.320Z,9.90
2023-05-21T14:04:13.191Z,8.18
2023-05-21T14:08:18.674Z,8.32
2023-05-21T14:12:21.919Z,8.80
2023-05-21T14:16:29.324Z,8.68
2023-05-21T14:20:31.038Z,9.77
2023-05-21T14:24:33.731Z,11.05
2023-05-21T14:28:36.147Z,11.38
2023-05-21T14:32:38.551Z,9.07
2023-05-21T14:36:41.319Z,10.20
2023-05-21T14:40:43.056Z,10.32
2023-05-21T14:44:44.746Z,9.38
2023-05-21T14:48:47.344Z,11.43
2023-05-21T14:52:49.099Z,9.68
2023-05-21T14:56:51.075Z,10.98
2023-05-21T15:00:53.114Z,9.82
2023-05-21T15:04:56.626Z,8.93
2023-05-21T15:08:58.648Z,9.88
2023-05-21T15:17:02.759Z,11.48
2023-05-21T15:21:05.268Z,12.07
2023-05-21T15:25:07.673Z,11.15
2023-05-21T15:29:09.741Z,9.05
2023-05-21T15:33:11.769Z,10.20
2023-05-21T15:37:18.763Z,11.93
2023-05-21T15:41:22.137Z,9.70
2023-05-21T15:45:25.762Z,9.48
2023-05-21T15:49:28.741Z,10.95
2023-05-21T15:53:30.483Z,11.02
2023-05-21T15:57:32.214Z,10.23
2023-05-21T16:01:34.230Z,11.55
2023-05-21T16:05:36.446Z,9.73
2023-05-21T16:13:40.914Z,8.55
2023-05-21T16:17:42.710Z,13.90
2023-05-21T16:21:44.427Z,9.77
2023-05-21T16:25:46.779Z,11.15
2023-05-21T16:29:48.499Z,9.00
2023-05-21T16:33:50.253Z,9.00
2023-05-21T16:37:52.041Z,8.82
2023-05-21T16:41:55.337Z,10.38
2023-05-21T16:45:57.083Z,10.73
2023-05-21T16:49:58.836Z,10.20
2023-05-21T16:54:00.550Z,10.63
2023-05-21T16:58:04.836Z,10.52
2023-05-21T17:02:07.576Z,9.63
2023-05-21T17:06:09.551Z,8.90
2023-05-21T17:10:12.157Z,11.15
2023-05-21T17:14:23.340Z,10.75
2023-05-21T17:18:35.126Z,10.00
2023-05-21T17:22:37.297Z,10.60
2023-05-21T17:26:39.031Z,11.20
2023-05-21T17:30:41.867Z,9.57
2023-05-21T17:42:47.763Z,10.15
2023-05-21T17:46:50.849Z,11.68
2023-05-21T17:50:52.650Z,9.45
2023-05-21T17:54:54.358Z,11.52
2023-05-21T17:58:56.035Z,11.45
2023-05-21T18:02:58.321Z,10.05
2023-05-21T18:07:01.297Z,11.00
2023-05-21T18:11:04.274Z,10.98
2023-05-21T18:15:07.556Z,11.38
2023-05-21T18:19:10.484Z,11.52
2023-05-21T18:23:12.383Z,11.88
2023-05-21T18:27:15.910Z,11.10
2023-05-21T18:31:17.861Z,12.27
2023-05-21T18:35:19.593Z,12.90
2023-05-21T18:39:24.814Z,12.40
2023-05-21T18:43:26.615Z,11.27
2023-05-21T18:47:28.946Z,11.52
2023-05-21T18:51:33.333Z,11.88
2023-05-21T18:55:36.778Z,10.90
2023-05-21T18:59:39.810Z,11.63
2023-05-21T19:03:41.627Z,10.32
2023-05-21T19:07:43.805Z,13.77
2023-05-21T19:11:47.244Z,11.10
2023-05-21T19:15:49.308Z,12.95
2023-05-21T19:19:55.961Z,12.07
2023-05-21T19:23:59.217Z,15.70
2023-05-21T19:28:02.488Z,11.52
2023-05-21T19:32:05.827Z,12.70
2023-05-21T19:36:08.124Z,12.23
2023-05-21T19:40:10.423Z,12.83
2023-05-21T19:44:12.162Z,12.80
2023-05-21T19:48:14.832Z,13.70
2023-05-21T19:52:16.821Z,13.70
2023-05-21T20:00:22.755Z,12.10
2023-05-21T20:04:24.503Z,11.90
2023-05-21T20:08:26.192Z,13.80
2023-05-21T20:12:28.064Z,10.17
2023-05-21T20:16:30.605Z,13.18
2023-05-21T20:20:34.820Z,11.20
2023-05-21T20:24:36.721Z,11.63
2023-05-21T20:28:39.817Z,11.23
2023-05-21T20:32:42.712Z,10.02
2023-05-21T20:36:44.440Z,9.90
2023-05-21T20:40:46.286Z,12.93
2023-05-21T20:44:49.853Z,11.80
2023-05-21T20:48:51.641Z,12.73
2023-05-21T20:52:53.443Z,12.70
2023-05-21T20:56:56.056Z,17.93
2023-05-21T21:00:58.227Z,13.35
2023-05-21T21:05:00.092Z,14.30
2023-05-21T21:09:01.800Z,15.97
2023-05-21T21:13:03.811Z,17.00
2023-05-21T21:17:05.818Z,14.67
2023-05-21T21:21:07.604Z,13.90
2023-05-21T21:25:09.786Z,11.70
2023-05-21T21:33:16.513Z,14.75
2023-05-21T21:37:18.308Z,11.80
2023-05-21T21:41:20.477Z,11.67
2023-05-21T21:45:22.152Z,11.10
2023-05-21T21:49:23.808Z,12.48
2023-05-21T21:53:25.587Z,11.80
2023-05-21T21:57:29.628Z,13.73
2023-05-21T22:01:31.455Z,12.52
2023-05-21T22:05:34.165Z,11.03
2023-05-21T22:13:37.898Z,14.23
2023-05-21T22:17:40.335Z,11.23
2023-05-21T22:21:42.388Z,12.18
2023-05-21T22:25:44.079Z,12.40
2023-05-21T22:29:45.854Z,12.63
2023-05-21T22:33:47.709Z,15.97
2023-05-21T22:37:49.382Z,14.97
2023-05-21T22:41:51.132Z,14.32
2023-05-21T22:45:53.220Z,12.25
2023-05-21T22:49:55.098Z,14.68
2023-05-21T22:53:57.025Z,14.15
2023-05-21T22:57:58.708Z,14.38
2023-05-21T23:02:00.557Z,15.07
2023-05-21T23:06:02.416Z,14.30
2023-05-21T23:10:04.487Z,15.57
2023-05-21T23:14:06.297Z,16.35
2023-05-21T23:18:08.855Z,15.98
2023-05-21T23:22:10.964Z,14.25
2023-05-21T23:26:12.709Z,18.17
2023-05-21T23:30:14.547Z,14.13
2023-05-21T23:34:16.280Z,16.98
2023-05-21T23:38:18.000Z,15.45
2023-05-21T23:42:19.822Z,15.90
2023-05-21T23:46:21.613Z,20.67
2023-05-21T23:50:25.002Z,16.80
2023-05-21T23:54:26.778Z,21.65
2023-05-21T23:58:28.459Z,17.20
